RUN weather

Roland Garros Airport
St Denis, RĂ©union

Public forecast

Using degrees Celsius for public forecast. Weather courtesy of forecast.io.

Current aviation weather report (METAR) for Roland Garros Airport

Retrieved 2019/11/17 19:30 UTC (0 seconds ago):

FMEE 171930Z AUTO 16006KT 9999 SCT025 BKN034 BKN040 25/21 Q1015 TEMPO 4000 SHRA

Aviation forecast (TAF) for Roland Garros Airport

Retrieved 2019/11/17 18:00 UTC (1 hour ago):

TAF FMEE 171700Z 1718/1824 17010KT 9999 SCT024 BKN040 PROB30 TEMPO 1718/1804 4000 SHRA BECMG 1804/1806 06015KT BECMG 1816/1818 17010KT